Time;durP1;ratioP1;P1;durP2;ratioP2;P2;SDS_P1;SDS_P2;PMS_P1;PMS_P2;Temp;Humidity;BMP_temperature;BMP_pressure;BME280_temperature;BME280_humidity;BME280_pressure;Samples;Min_cycle;Max_cycle;Signal;HPM_P1;HPM_P2
2022/09/20 00:01:02;;;;;;;1.75;1.20;;;;;;;;;;5010939;28;89447;-70
2022/09/20 00:03:29;;;;;;;5.15;1.77;;;;;;;;;;5020362;28;89794;-70
2022/09/20 00:05:59;;;;;;;2.20;1.38;;;;;;;;;;5038317;27;87900;-71
2022/09/20 00:08:25;;;;;;;1.50;1.20;;;;;;;;;;5040875;27;88640;-70
2022/09/20 00:10:56;;;;;;;3.15;1.40;;;;;;;;;;5038361;27;87981;-71
2022/09/20 00:13:22;;;;;;;1.77;1.30;;;;;;;;;;5038519;27;88345;-70
2022/09/20 00:15:48;;;;;;;2.47;1.50;;;;;;;;;;5037829;27;88270;-71
2022/09/20 00:18:15;;;;;;;1.80;1.30;;;;;;;;;;5038441;28;87935;-70
2022/09/20 00:20:43;;;;;;;3.20;1.23;;;;;;;;;;5037762;28;89250;-70
2022/09/20 00:23:10;;;;;;;1.80;1.30;;;;;;;;;;5026271;27;90984;-70
2022/09/20 00:25:36;;;;;;;2.05;1.08;;;;;;;;;;5018354;28;87942;-71
2022/09/20 00:28:02;;;;;;;4.35;1.65;;;;;;;;;;5018417;28;89586;-71
2022/09/20 00:30:30;;;;;;;2.35;1.50;;;;;;;;;;5020943;28;89643;-70
2022/09/20 00:32:56;;;;;;;1.58;1.20;;;;;;;;;;5018144;28;89607;-70
2022/09/20 00:35:22;;;;;;;1.83;1.10;;;;;;;;;;5017754;28;87997;-70
2022/09/20 00:37:49;;;;;;;3.22;1.70;;;;;;;;;;5018258;28;88378;-71
2022/09/20 00:40:19;;;;;;;3.08;1.55;;;;;;;;;;5018708;28;88614;-71
2022/09/20 00:42:46;;;;;;;2.45;1.55;;;;;;;;;;5017213;28;89856;-70
2022/09/20 00:45:23;;;;;;;2.78;1.20;;;;;;;;;;5017414;28;88031;-70
2022/09/20 00:47:53;;;;;;;2.22;1.35;;;;;;;;;;5017015;28;88723;-70
2022/09/20 00:50:29;;;;;;;2.15;1.50;;;;;;;;;;5017278;28;89447;-70
2022/09/20 00:52:58;;;;;;;1.95;1.10;;;;;;;;;;5020022;28;87934;-70
2022/09/20 00:55:25;;;;;;;1.83;1.20;;;;;;;;;;5018633;28;88889;-71
2022/09/20 00:57:52;;;;;;;2.88;1.40;;;;;;;;;;5016293;28;88057;-70
2022/09/20 01:00:19;;;;;;;1.25;1.15;;;;;;;;;;5018208;28;88553;-70
2022/09/20 01:02:46;;;;;;;2.00;1.20;;;;;;;;;;5017361;28;88729;-70
2022/09/20 01:05:14;;;;;;;1.30;1.20;;;;;;;;;;5017102;28;87813;-71
2022/09/20 01:07:41;;;;;;;2.40;1.38;;;;;;;;;;5017891;28;88291;-70
2022/09/20 01:10:07;;;;;;;1.10;0.98;;;;;;;;;;5017726;28;88791;-70
2022/09/20 01:12:34;;;;;;;3.15;1.17;;;;;;;;;;5026991;28;89022;-70
2022/09/20 01:15:02;;;;;;;2.33;1.20;;;;;;;;;;5040235;28;88137;-70
2022/09/20 01:17:30;;;;;;;1.35;1.05;;;;;;;;;;5036896;28;88032;-70
2022/09/20 01:20:05;;;;;;;2.33;1.13;;;;;;;;;;5037280;27;88583;-70
2022/09/20 01:22:32;;;;;;;2.25;1.30;;;;;;;;;;5030366;28;88802;-71
2022/09/20 01:24:58;;;;;;;2.15;1.45;;;;;;;;;;5016371;28;88034;-71
2022/09/20 01:27:43;;;;;;;2.22;1.20;;;;;;;;;;5017300;28;89087;-71
2022/09/20 01:30:15;;;;;;;2.00;1.17;;;;;;;;;;5005065;28;88085;-70
2022/09/20 01:32:42;;;;;;;;;;;;;;;;;;4997121;28;88601;-71
2022/09/20 01:35:10;;;;;;;3.22;1.63;;;;;;;;;;5000633;28;119334;-71
2022/09/20 01:37:55;;;;;;;2.47;1.40;;;;;;;;;;4996407;28;88744;-71
2022/09/20 01:40:41;;;;;;;1.55;1.08;;;;;;;;;;5005680;28;89431;-70
2022/09/20 01:43:20;;;;;;;2.42;1.25;;;;;;;;;;5017351;28;89786;-70
2022/09/20 01:45:48;;;;;;;4.43;1.30;;;;;;;;;;5016626;28;88854;-70
2022/09/20 01:48:24;;;;;;;1.70;1.10;;;;;;;;;;5017348;28;87811;-70
2022/09/20 01:51:09;;;;;;;2.00;1.17;;;;;;;;;;5016968;28;88932;-70
2022/09/20 01:54:03;;;;;;;2.00;1.10;;;;;;;;;;5016343;28;88632;-70
2022/09/20 01:56:50;;;;;;;1.35;1.13;;;;;;;;;;5017865;28;89363;-70
2022/09/20 01:59:39;;;;;;;1.42;1.08;;;;;;;;;;5023610;28;89755;-70
2022/09/20 02:02:07;;;;;;;1.83;1.10;;;;;;;;;;5000461;28;89807;-70
2022/09/20 02:04:34;;;;;;;1.30;1.20;;;;;;;;;;5020981;28;88640;-70
2022/09/20 02:07:11;;;;;;;1.33;1.17;;;;;;;;;;5019745;28;87914;-70
2022/09/20 02:09:47;;;;;;;4.38;1.52;;;;;;;;;;5020407;28;88621;-70
2022/09/20 02:12:31;;;;;;;2.88;1.42;;;;;;;;;;5020608;28;87930;-70
2022/09/20 02:15:12;;;;;;;2.17;1.10;;;;;;;;;;5019618;28;88215;-70
2022/09/20 02:17:53;;;;;;;1.73;1.13;;;;;;;;;;5020410;28;88489;-70
2022/09/20 02:20:30;;;;;;;2.33;1.37;;;;;;;;;;5020848;28;89091;-70
2022/09/20 02:23:19;;;;;;;1.90;1.02;;;;;;;;;;5022574;28;87960;-71
2022/09/20 02:25:59;;;;;;;1.85;1.20;;;;;;;;;;5019868;28;89163;-70
2022/09/20 02:28:32;;;;;;;1.25;0.95;;;;;;;;;;5019001;28;89132;-70
2022/09/20 02:30:58;;;;;;;1.33;0.98;;;;;;;;;;5019366;28;88678;-70
2022/09/20 02:33:45;;;;;;;1.65;0.90;;;;;;;;;;5020236;28;89983;-70
2022/09/20 02:36:20;;;;;;;2.08;1.23;;;;;;;;;;5012095;28;89127;-70
2022/09/20 02:39:07;;;;;;;1.50;1.00;;;;;;;;;;4999930;28;88453;-70
2022/09/20 02:41:33;;;;;;;1.20;0.80;;;;;;;;;;5019039;28;88630;-70
2022/09/20 02:44:18;;;;;;;2.50;1.02;;;;;;;;;;5018610;28;87941;-70
2022/09/20 02:46:44;;;;;;;1.90;1.00;;;;;;;;;;5023007;28;89616;-70
2022/09/20 02:49:20;;;;;;;2.13;1.15;;;;;;;;;;5019622;28;87183;-70
2022/09/20 02:51:50;;;;;;;2.70;1.30;;;;;;;;;;5019158;28;88049;-70
2022/09/20 02:54:25;;;;;;;2.72;0.98;;;;;;;;;;5028252;28;88338;-70
2022/09/20 02:57:07;;;;;;;1.42;1.08;;;;;;;;;;5038499;28;89185;-70
2022/09/20 02:59:51;;;;;;;2.33;1.27;;;;;;;;;;5039853;27;89122;-70
2022/09/20 03:02:38;;;;;;;2.65;1.15;;;;;;;;;;5039696;27;88810;-70
2022/09/20 03:05:04;;;;;;;2.15;1.00;;;;;;;;;;5017558;28;87979;-70
2022/09/20 03:07:33;;;;;;;1.20;1.10;;;;;;;;;;5039098;27;88874;-70
2022/09/20 03:10:17;;;;;;;1.55;1.17;;;;;;;;;;5041422;28;88860;-69
2022/09/20 03:13:02;;;;;;;2.20;1.65;;;;;;;;;;5040090;27;89303;-70
2022/09/20 03:15:32;;;;;;;2.05;1.20;;;;;;;;;;5039788;28;87229;-70
2022/09/20 03:17:59;;;;;;;2.83;1.42;;;;;;;;;;5038488;27;88354;-70
2022/09/20 03:20:28;;;;;;;2.72;1.45;;;;;;;;;;5039326;28;88751;-69
2022/09/20 03:23:13;;;;;;;3.25;1.20;;;;;;;;;;5023601;28;89835;-70
2022/09/20 03:25:48;;;;;;;1.10;1.05;;;;;;;;;;5017853;28;88038;-70
2022/09/20 03:28:38;;;;;;;1.65;0.95;;;;;;;;;;5019151;28;88629;-70
2022/09/20 03:31:29;;;;;;;2.75;1.25;;;;;;;;;;4997782;28;89257;-70
2022/09/20 03:34:04;;;;;;;1.25;0.95;;;;;;;;;;5002186;28;87987;-70
2022/09/20 03:36:49;;;;;;;2.90;1.20;;;;;;;;;;4999660;28;88996;-70
2022/09/20 03:39:18;;;;;;;1.42;1.00;;;;;;;;;;4997871;28;88002;-70
2022/09/20 03:42:04;;;;;;;1.80;1.15;;;;;;;;;;4999683;28;87687;-70
2022/09/20 03:44:36;;;;;;;1.85;1.05;;;;;;;;;;5002580;28;88884;-71
2022/09/20 03:47:03;;;;;;;;;;;;;;;;;;5018757;28;88026;-70
2022/09/20 03:49:29;;;;;;;1.85;1.02;;;;;;;;;;5018994;28;118688;-70
2022/09/20 03:52:14;;;;;;;1.90;1.10;;;;;;;;;;5018928;28;89264;-71
2022/09/20 03:54:53;;;;;;;2.17;1.02;;;;;;;;;;5021783;28;87958;-69
2022/09/20 03:57:38;;;;;;;1.35;1.00;;;;;;;;;;5018327;28;88848;-69
2022/09/20 04:00:22;;;;;;;1.33;1.20;;;;;;;;;;4997935;28;88014;-70
2022/09/20 04:02:59;;;;;;;2.20;1.17;;;;;;;;;;5012206;28;88743;-69
2022/09/20 04:05:46;;;;;;;1.10;1.00;;;;;;;;;;5018976;28;88837;-69
2022/09/20 04:08:16;;;;;;;1.10;0.90;;;;;;;;;;5018389;28;87899;-69
2022/09/20 04:10:45;;;;;;;1.30;1.00;;;;;;;;;;5018217;28;87953;-69
2022/09/20 04:13:20;;;;;;;3.67;1.42;;;;;;;;;;5017963;28;88540;-69
2022/09/20 04:16:05;;;;;;;1.83;0.93;;;;;;;;;;5017524;28;88658;-70
2022/09/20 04:18:34;;;;;;;3.90;1.00;;;;;;;;;;5021991;28;89263;-69
2022/09/20 04:21:04;;;;;;;2.03;1.15;;;;;;;;;;5015945;28;89312;-70
2022/09/20 04:23:48;;;;;;;2.72;1.20;;;;;;;;;;4998863;28;88627;-70
2022/09/20 04:26:19;;;;;;;1.70;1.23;;;;;;;;;;4998712;28;88889;-69
2022/09/20 04:28:48;;;;;;;2.75;1.20;;;;;;;;;;4997659;28;88601;-70
2022/09/20 04:31:33;;;;;;;2.78;1.33;;;;;;;;;;4999629;28;88416;-70
2022/09/20 04:34:00;;;;;;;0.73;0.70;;;;;;;;;;5018746;28;88268;-69
2022/09/20 04:36:49;;;;;;;1.63;1.00;;;;;;;;;;5018336;28;88347;-70
2022/09/20 04:39:23;;;;;;;1.52;1.05;;;;;;;;;;5018485;28;88597;-69
2022/09/20 04:41:50;;;;;;;3.83;1.30;;;;;;;;;;4999368;28;90216;-69
2022/09/20 04:44:35;;;;;;;2.05;1.08;;;;;;;;;;4998222;28;89424;-70
2022/09/20 04:47:14;;;;;;;1.27;1.05;;;;;;;;;;4998115;28;90168;-70
2022/09/20 04:49:40;;;;;;;2.03;1.00;;;;;;;;;;4997566;28;88393;-71
2022/09/20 04:52:33;;;;;;;1.80;1.35;;;;;;;;;;5006801;28;88557;-71
2022/09/20 04:55:17;;;;;;;1.10;1.00;;;;;;;;;;5005156;28;88112;-71
2022/09/20 04:57:46;;;;;;;1.75;1.13;;;;;;;;;;5016854;28;88927;-70
2022/09/20 05:00:20;;;;;;;1.73;1.17;;;;;;;;;;5018498;28;88846;-70
2022/09/20 05:03:04;;;;;;;4.45;1.63;;;;;;;;;;5016821;28;88310;-70
2022/09/20 05:05:41;;;;;;;2.50;1.52;;;;;;;;;;5021122;28;87936;-70
2022/09/20 05:08:07;;;;;;;2.22;1.25;;;;;;;;;;5017031;28;89867;-69
2022/09/20 05:10:49;;;;;;;1.80;1.33;;;;;;;;;;5017752;28;88008;-70
2022/09/20 05:13:26;;;;;;;1.25;0.90;;;;;;;;;;5017694;28;89486;-71
2022/09/20 05:16:00;;;;;;;2.22;1.00;;;;;;;;;;5017391;28;89096;-69
2022/09/20 05:18:32;;;;;;;1.13;0.98;;;;;;;;;;5017188;28;88161;-70
2022/09/20 05:20:58;;;;;;;1.65;1.08;;;;;;;;;;5017058;28;88555;-69
2022/09/20 05:23:24;;;;;;;1.23;0.85;;;;;;;;;;5017615;28;88840;-70
2022/09/20 05:26:02;;;;;;;3.63;1.10;;;;;;;;;;5017063;28;87838;-69
2022/09/20 05:28:31;;;;;;;2.65;1.00;;;;;;;;;;5021258;28;88731;-70
2022/09/20 05:31:01;;;;;;;1.10;1.08;;;;;;;;;;5017397;28;88009;-69
2022/09/20 05:33:40;;;;;;;0.98;0.98;;;;;;;;;;5021174;28;88662;-69
2022/09/20 05:36:16;;;;;;;1.67;0.93;;;;;;;;;;5020977;28;87940;-70
2022/09/20 05:38:50;;;;;;;1.13;1.02;;;;;;;;;;5020042;28;88602;-70
2022/09/20 05:41:30;;;;;;;1.92;1.02;;;;;;;;;;5020813;28;89111;-69
2022/09/20 05:44:15;;;;;;;2.97;0.98;;;;;;;;;;5021160;28;89809;-69
2022/09/20 05:46:49;;;;;;;2.78;1.33;;;;;;;;;;5019701;28;88205;-69
2022/09/20 05:49:21;;;;;;;2.70;1.30;;;;;;;;;;5000725;28;88714;-69
2022/09/20 05:51:50;;;;;;;3.65;1.30;;;;;;;;;;5003098;28;88384;-70
2022/09/20 05:54:19;;;;;;;1.75;1.00;;;;;;;;;;5001034;28;87939;-69
2022/09/20 05:56:54;;;;;;;2.72;1.10;;;;;;;;;;5000602;28;89082;-69
2022/09/20 05:59:37;;;;;;;1.33;1.15;;;;;;;;;;4999019;28;88600;-70
2022/09/20 06:02:32;;;;;;;2.85;1.23;;;;;;;;;;5016692;28;89420;-69
2022/09/20 06:05:10;;;;;;;2.22;1.17;;;;;;;;;;4981664;28;88147;-69
2022/09/20 06:07:55;;;;;;;1.27;1.17;;;;;;;;;;5001237;27;89698;-72
2022/09/20 06:10:24;;;;;;;2.20;1.30;;;;;;;;;;5000119;28;88850;-72
2022/09/20 06:13:03;;;;;;;2.15;1.25;;;;;;;;;;5002095;28;88848;-68
2022/09/20 06:15:32;;;;;;;10.13;1.20;;;;;;;;;;5001131;28;89416;-69
2022/09/20 06:17:58;;;;;;;10.00;1.10;;;;;;;;;;5000173;28;87928;-66
2022/09/20 06:20:43;;;;;;;14.98;1.30;;;;;;;;;;5000276;28;88173;-70
2022/09/20 06:23:10;;;;;;;2.30;1.40;;;;;;;;;;5000461;27;87912;-70
2022/09/20 06:25:52;;;;;;;3.15;0.90;;;;;;;;;;5003175;28;90113;-70
2022/09/20 06:28:20;;;;;;;2.15;1.33;;;;;;;;;;4998408;28;90543;-71
2022/09/20 06:30:50;;;;;;;4.50;1.13;;;;;;;;;;5011033;28;88881;-71
2022/09/20 06:33:19;;;;;;;1.77;1.17;;;;;;;;;;4999855;28;88075;-71
2022/09/20 06:35:45;;;;;;;3.08;1.00;;;;;;;;;;5000569;28;89665;-70
2022/09/20 06:41:39;;;;;;;1.20;1.10;;;;;;;;;;5016723;28;88385;-70
2022/09/20 06:43:47;;;;;;;3.40;1.00;;;;;;;;;;5000013;28;88473;-71
2022/09/20 06:46:14;;;;;;;3.75;1.27;;;;;;;;;;4999855;28;88930;-71
2022/09/20 06:48:41;;;;;;;1.60;1.02;;;;;;;;;;4999405;28;88478;-71
2022/09/20 06:51:11;;;;;;;1.13;1.00;;;;;;;;;;4998882;28;88710;-71
2022/09/20 06:53:39;;;;;;;2.53;1.33;;;;;;;;;;5004420;28;89121;-70
2022/09/20 06:56:07;;;;;;;2.65;1.30;;;;;;;;;;5008211;28;88664;-71
2022/09/20 06:58:33;;;;;;;1.20;1.10;;;;;;;;;;5002427;28;88268;-71
2022/09/20 07:00:59;;;;;;;3.58;1.17;;;;;;;;;;5002614;28;88062;-71
2022/09/20 07:03:26;;;;;;;3.42;1.40;;;;;;;;;;5019077;28;89344;-70
2022/09/20 07:05:52;;;;;;;3.00;1.10;;;;;;;;;;5011662;28;93308;-71
2022/09/20 07:08:18;;;;;;;3.70;1.42;;;;;;;;;;5004896;28;91682;-71
2022/09/20 07:10:45;;;;;;;3.42;1.48;;;;;;;;;;4997010;28;93095;-71
2022/09/20 07:13:12;;;;;;;2.10;1.15;;;;;;;;;;4996875;28;93534;-70
2022/09/20 07:15:39;;;;;;;2.17;1.02;;;;;;;;;;4997286;28;95059;-70
2022/09/20 07:18:05;;;;;;;1.27;1.17;;;;;;;;;;4998058;28;95149;-70
2022/09/20 07:20:32;;;;;;;1.50;1.25;;;;;;;;;;5006328;28;93262;-70
2022/09/20 07:22:58;;;;;;;3.08;1.25;;;;;;;;;;4996277;28;93200;-71
2022/09/20 07:25:25;;;;;;;2.40;1.10;;;;;;;;;;4995605;28;93210;-70
2022/09/20 07:27:51;;;;;;;1.38;1.27;;;;;;;;;;4996073;28;93219;-71
2022/09/20 07:30:18;;;;;;;3.60;1.20;;;;;;;;;;4994828;28;92746;-71
2022/09/20 07:32:44;;;;;;;2.35;1.33;;;;;;;;;;4996427;28;94201;-70
2022/09/20 07:35:11;;;;;;;2.58;1.10;;;;;;;;;;4995918;28;93314;-77
2022/09/20 07:37:40;;;;;;;1.83;1.20;;;;;;;;;;5000132;28;93936;-76
2022/09/20 07:40:07;;;;;;;2.83;1.55;;;;;;;;;;4995768;28;96440;-70
2022/09/20 07:42:34;;;;;;;2.63;1.40;;;;;;;;;;4998629;28;92461;-70
2022/09/20 07:45:02;;;;;;;1.90;1.13;;;;;;;;;;4994488;28;93227;-70
2022/09/20 07:47:31;;;;;;;3.20;1.58;;;;;;;;;;4998103;28;92560;-69
2022/09/20 07:49:58;;;;;;;2.17;1.13;;;;;;;;;;5003908;28;93807;-69
2022/09/20 07:52:24;;;;;;;1.05;1.00;;;;;;;;;;5015049;28;92960;-70
2022/09/20 07:54:50;;;;;;;5.03;1.90;;;;;;;;;;4999880;28;92389;-69
2022/09/20 07:57:17;;;;;;;2.92;1.20;;;;;;;;;;4996137;28;93021;-68
2022/09/20 07:59:43;;;;;;;3.28;1.15;;;;;;;;;;4997762;28;93176;-69
2022/09/20 08:02:13;;;;;;;3.38;1.30;;;;;;;;;;5001706;28;92511;-69
2022/09/20 08:04:39;;;;;;;3.72;1.67;;;;;;;;;;5002720;28;94744;-69
2022/09/20 08:07:05;;;;;;;3.40;1.17;;;;;;;;;;5011154;28;92654;-69
2022/09/20 08:09:32;;;;;;;3.90;1.50;;;;;;;;;;5015374;28;92849;-69
2022/09/20 08:11:58;;;;;;;12.60;1.20;;;;;;;;;;5015220;28;93135;-69
2022/09/20 08:14:25;;;;;;;3.75;1.30;;;;;;;;;;5014750;28;92408;-68
2022/09/20 08:16:51;;;;;;;5.53;2.10;;;;;;;;;;5015989;28;93799;-69
2022/09/20 08:19:19;;;;;;;1.80;1.13;;;;;;;;;;5013369;28;93087;-68
2022/09/20 08:21:46;;;;;;;5.90;1.52;;;;;;;;;;4995665;28;91831;-69
2022/09/20 08:24:15;;;;;;;1.23;1.05;;;;;;;;;;4998093;28;92364;-69
2022/09/20 08:26:42;;;;;;;2.15;1.15;;;;;;;;;;4994517;28;92523;-68
2022/09/20 08:29:09;;;;;;;4.10;1.20;;;;;;;;;;4995540;28;94861;-69
2022/09/20 08:31:37;;;;;;;1.70;1.10;;;;;;;;;;5007834;28;92768;-69
2022/09/20 08:34:05;;;;;;;2.50;1.20;;;;;;;;;;4995218;28;92498;-69
2022/09/20 08:36:32;;;;;;;1.63;1.33;;;;;;;;;;4994736;28;93077;-69
2022/09/20 08:39:02;;;;;;;2.75;1.10;;;;;;;;;;4995309;28;92566;-69
2022/09/20 08:41:57;;;;;;;13.50;1.40;;;;;;;;;;4993165;28;95148;-69
2022/09/20 08:44:26;;;;;;;8.10;1.60;;;;;;;;;;4995596;28;94171;-69
2022/09/20 08:47:01;;;;;;;10.50;1.25;;;;;;;;;;4998665;28;92385;-69
2022/09/20 08:49:28;;;;;;;7.15;2.10;;;;;;;;;;4994008;28;94391;-69
2022/09/20 08:51:57;;;;;;;9.52;1.25;;;;;;;;;;4993485;28;93427;-69
2022/09/20 08:54:24;;;;;;;4.53;1.45;;;;;;;;;;4994165;28;95413;-69
2022/09/20 08:56:50;;;;;;;3.90;1.33;;;;;;;;;;4999279;28;95398;-69
2022/09/20 08:59:18;;;;;;;5.55;1.77;;;;;;;;;;4993263;28;93525;-69
2022/09/20 09:01:48;;;;;;;6.72;1.85;;;;;;;;;;5005551;28;92565;-69
2022/09/20 09:04:16;;;;;;;3.50;1.10;;;;;;;;;;5010055;28;93413;-69
2022/09/20 09:06:43;;;;;;;3.03;1.58;;;;;;;;;;4996830;28;94049;-69
2022/09/20 09:09:21;;;;;;;6.65;1.40;;;;;;;;;;5007290;28;92440;-69
2022/09/20 09:11:48;;;;;;;1.10;0.98;;;;;;;;;;5011906;28;93474;-69
2022/09/20 09:17:07;;;;;;;;;;;;;;;;;;5003858;28;94439;-69
2022/09/20 09:19:45;;;;;;;4.43;1.25;;;;;;;;;;5007438;28;127050;-68
2022/09/20 09:22:16;;;;;;;1.55;1.00;;;;;;;;;;4994622;28;92467;-68
2022/09/20 09:24:42;;;;;;;1.92;1.10;;;;;;;;;;5000662;28;93259;-68
2022/09/20 09:27:13;;;;;;;2.30;1.17;;;;;;;;;;4993242;28;93346;-67
2022/09/20 09:29:50;;;;;;;6.07;1.45;;;;;;;;;;5003317;28;92519;-68
2022/09/20 09:32:25;;;;;;;7.75;1.20;;;;;;;;;;4996639;28;93258;-67
2022/09/20 09:34:51;;;;;;;6.32;1.40;;;;;;;;;;4994226;28;92430;-67
2022/09/20 09:37:29;;;;;;;3.08;0.90;;;;;;;;;;4995192;28;92922;-67
2022/09/20 09:40:08;;;;;;;2.05;1.05;;;;;;;;;;4992477;28;96832;-67
2022/09/20 09:42:35;;;;;;;2.22;1.10;;;;;;;;;;4993268;28;92445;-67
2022/09/20 09:45:11;;;;;;;2.42;1.13;;;;;;;;;;4994248;28;95622;-67
2022/09/20 09:47:37;;;;;;;1.92;1.30;;;;;;;;;;4993093;28;93501;-71
2022/09/20 09:50:04;;;;;;;6.90;1.08;;;;;;;;;;4995987;28;93233;-68
2022/09/20 09:52:35;;;;;;;8.95;1.60;;;;;;;;;;5013460;28;92883;-67
2022/09/20 09:55:03;;;;;;;11.75;1.63;;;;;;;;;;5016913;28;93685;-67
2022/09/20 09:57:44;;;;;;;3.50;0.90;;;;;;;;;;5013866;28;93821;-67
2022/09/20 10:00:12;;;;;;;2.05;1.15;;;;;;;;;;5013174;28;93182;-67
2022/09/20 10:03:05;;;;;;;2.85;1.10;;;;;;;;;;5013950;28;91784;-68
2022/09/20 10:05:36;;;;;;;4.45;1.00;;;;;;;;;;5013446;28;93246;-68
2022/09/20 10:08:22;;;;;;;2.03;1.15;;;;;;;;;;5013899;28;93754;-67
2022/09/20 10:10:51;;;;;;;3.90;1.20;;;;;;;;;;5012277;28;94843;-67
2022/09/20 10:13:20;;;;;;;2.58;1.23;;;;;;;;;;5012870;28;95648;-68
2022/09/20 10:15:54;;;;;;;2.90;1.10;;;;;;;;;;5013194;28;93331;-68
2022/09/20 10:18:29;;;;;;;3.25;1.25;;;;;;;;;;5018547;28;92352;-68
2022/09/20 10:20:56;;;;;;;3.30;1.10;;;;;;;;;;5000210;28;94776;-68
2022/09/20 10:23:43;;;;;;;5.18;0.93;;;;;;;;;;4997288;28;92426;-67
2022/09/20 10:26:38;;;;;;;1.90;0.88;;;;;;;;;;4997270;27;93065;-68
2022/09/20 10:29:23;;;;;;;2.25;0.93;;;;;;;;;;4997493;28;92583;-67
2022/09/20 10:31:53;;;;;;;0.95;0.80;;;;;;;;;;4999517;28;92523;-67
2022/09/20 10:34:28;;;;;;;5.55;1.00;;;;;;;;;;5016395;28;92825;-67
2022/09/20 10:36:59;;;;;;;3.65;1.10;;;;;;;;;;5002863;28;96285;-67
2022/09/20 10:39:30;;;;;;;1.52;1.00;;;;;;;;;;5000287;28;92419;-67
2022/09/20 10:44:51;;;;;;;1.77;1.08;;;;;;;;;;4997108;28;92434;-68
2022/09/20 10:47:21;;;;;;;3.30;0.85;;;;;;;;;;4997106;28;92600;-68
2022/09/20 10:50:02;;;;;;;4.50;1.45;;;;;;;;;;4997589;28;93180;-67
2022/09/20 10:52:34;;;;;;;2.17;1.10;;;;;;;;;;4997183;28;92528;-69
2022/09/20 10:55:10;;;;;;;4.05;1.30;;;;;;;;;;4996983;28;93045;-67
2022/09/20 10:57:46;;;;;;;1.95;1.10;;;;;;;;;;4996024;28;92347;-67
2022/09/20 11:00:41;;;;;;;1.75;0.88;;;;;;;;;;4997143;28;92387;-68
2022/09/20 11:03:25;;;;;;;0.73;0.73;;;;;;;;;;4997607;28;94927;-68
2022/09/20 11:05:56;;;;;;;3.03;1.00;;;;;;;;;;4996502;28;92374;-67
2022/09/20 11:08:25;;;;;;;4.03;1.00;;;;;;;;;;5008224;28;93834;-67
2022/09/20 11:10:53;;;;;;;2.08;0.90;;;;;;;;;;5016091;28;93169;-67
2022/09/20 11:13:32;;;;;;;3.80;0.95;;;;;;;;;;5016598;28;92302;-67
2022/09/20 11:16:04;;;;;;;1.77;0.98;;;;;;;;;;5015528;28;92774;-67
2022/09/20 11:18:37;;;;;;;3.38;0.93;;;;;;;;;;5014157;28;93668;-67
2022/09/20 11:21:23;;;;;;;3.90;0.93;;;;;;;;;;4996827;28;91671;-67
2022/09/20 11:24:08;;;;;;;2.25;1.00;;;;;;;;;;4995450;28;92684;-67
2022/09/20 11:26:44;;;;;;;1.55;1.10;;;;;;;;;;5014866;28;93364;-67
2022/09/20 11:29:27;;;;;;;3.78;1.05;;;;;;;;;;5014430;28;94786;-67
2022/09/20 11:31:57;;;;;;;2.40;0.90;;;;;;;;;;5014212;28;93366;-67
2022/09/20 11:34:25;;;;;;;0.90;0.90;;;;;;;;;;5016068;28;92414;-68
2022/09/20 11:37:00;;;;;;;1.55;0.90;;;;;;;;;;5015014;28;92976;-67
2022/09/20 11:39:26;;;;;;;2.10;1.00;;;;;;;;;;5015945;28;94273;-67
2022/09/20 11:41:54;;;;;;;0.93;0.80;;;;;;;;;;5015874;28;92422;-67
2022/09/20 11:44:20;;;;;;;3.42;1.33;;;;;;;;;;5015455;28;93057;-67
2022/09/20 11:46:53;;;;;;;3.45;1.10;;;;;;;;;;5015034;28;92491;-67
2022/09/20 11:49:27;;;;;;;1.52;1.00;;;;;;;;;;5010610;28;92457;-67
2022/09/20 11:52:12;;;;;;;4.05;1.20;;;;;;;;;;4994913;28;93039;-67
2022/09/20 11:54:39;;;;;;;1.75;1.10;;;;;;;;;;4994962;27;95311;-67
2022/09/20 11:57:06;;;;;;;1.85;1.27;;;;;;;;;;4995820;28;94257;-67
2022/09/20 11:59:33;;;;;;;1.73;1.20;;;;;;;;;;4994464;28;93486;-67
2022/09/20 12:02:02;;;;;;;5.05;1.55;;;;;;;;;;4995659;28;92460;-67
2022/09/20 12:04:30;;;;;;;1.27;1.10;;;;;;;;;;4995012;28;92950;-67
2022/09/20 12:07:01;;;;;;;3.15;0.98;;;;;;;;;;4996295;28;94213;-67
2022/09/20 12:09:36;;;;;;;2.03;0.90;;;;;;;;;;5015649;28;92372;-67
2022/09/20 12:12:13;;;;;;;1.58;0.90;;;;;;;;;;5017743;28;93926;-67
2022/09/20 12:14:41;;;;;;;5.30;0.90;;;;;;;;;;5015330;28;92373;-67
2022/09/20 12:17:27;;;;;;;8.45;0.95;;;;;;;;;;5015609;28;93005;-67
2022/09/20 12:19:53;;;;;;;4.70;0.95;;;;;;;;;;4996179;28;95169;-66
2022/09/20 12:22:27;;;;;;;3.53;0.90;;;;;;;;;;4994848;28;92494;-66
2022/09/20 12:25:25;;;;;;;1.05;0.80;;;;;;;;;;4995505;28;93088;-67
2022/09/20 12:27:51;;;;;;;2.63;1.45;;;;;;;;;;4995617;28;93662;-67
2022/09/20 12:30:19;;;;;;;1.50;1.10;;;;;;;;;;5003607;28;92436;-67
2022/09/20 12:32:46;;;;;;;2.75;0.95;;;;;;;;;;4996890;28;93074;-67
2022/09/20 12:35:33;;;;;;;5.65;1.83;;;;;;;;;;5013790;28;92371;-67
2022/09/20 12:38:18;;;;;;;3.75;1.30;;;;;;;;;;5009213;28;92926;-67
2022/09/20 12:41:01;;;;;;;5.95;1.13;;;;;;;;;;4992968;28;93509;-67
2022/09/20 12:43:28;;;;;;;4.85;1.10;;;;;;;;;;4995439;28;92386;-67
2022/09/20 12:45:55;;;;;;;3.63;1.08;;;;;;;;;;4994345;28;95605;-67
2022/09/20 12:48:33;;;;;;;3.20;1.20;;;;;;;;;;4997822;28;93335;-66
2022/09/20 12:53:59;;;;;;;1.80;0.98;;;;;;;;;;5013942;28;93875;-67
2022/09/20 12:56:26;;;;;;;3.80;1.20;;;;;;;;;;5017414;28;93749;-67
2022/09/20 12:58:54;;;;;;;7.18;1.38;;;;;;;;;;5013897;28;93158;-66
2022/09/20 13:01:21;;;;;;;7.72;1.33;;;;;;;;;;5013486;28;92883;-66
2022/09/20 13:03:49;;;;;;;2.38;1.20;;;;;;;;;;5015046;28;91958;-67
2022/09/20 13:06:18;;;;;;;3.00;1.25;;;;;;;;;;5015093;28;93176;-66
2022/09/20 13:08:59;;;;;;;2.97;1.27;;;;;;;;;;5013686;28;93423;-66
2022/09/20 13:11:40;;;;;;;2.80;1.02;;;;;;;;;;5013121;28;94945;-69
2022/09/20 13:14:06;;;;;;;5.55;1.13;;;;;;;;;;5014600;28;95410;-66
2022/09/20 13:16:38;;;;;;;5.60;1.42;;;;;;;;;;5013587;28;93238;-66
2022/09/20 13:19:24;;;;;;;9.75;1.45;;;;;;;;;;5007771;28;92831;-65
2022/09/20 13:21:51;;;;;;;14.50;1.50;;;;;;;;;;5013417;28;92636;-65
2022/09/20 13:24:19;;;;;;;5.32;1.17;;;;;;;;;;5014746;28;92999;-66
2022/09/20 13:26:47;;;;;;;5.35;1.48;;;;;;;;;;5014255;28;92736;-65
2022/09/20 13:29:29;;;;;;;3.17;1.15;;;;;;;;;;5014040;28;92558;-65
2022/09/20 13:31:55;;;;;;;4.03;1.10;;;;;;;;;;5014496;28;92425;-65
2022/09/20 13:34:23;;;;;;;10.10;1.38;;;;;;;;;;5014465;28;93216;-66
2022/09/20 13:36:52;;;;;;;5.60;1.15;;;;;;;;;;5011423;28;95577;-66
2022/09/20 13:39:23;;;;;;;18.42;2.17;;;;;;;;;;5014088;28;92497;-65
2022/09/20 13:41:49;;;;;;;5.82;1.20;;;;;;;;;;5016725;28;93022;-65
2022/09/20 13:44:16;;;;;;;5.10;1.17;;;;;;;;;;5013804;28;92401;-66
2022/09/20 13:46:43;;;;;;;4.28;1.30;;;;;;;;;;5012368;28;92960;-65
2022/09/20 13:49:20;;;;;;;5.95;1.20;;;;;;;;;;4994232;28;93146;-65
2022/09/20 13:51:47;;;;;;;4.68;1.10;;;;;;;;;;4994368;28;92437;-65
2022/09/20 13:54:20;;;;;;;3.78;1.05;;;;;;;;;;4998637;28;92977;-66
2022/09/20 13:56:48;;;;;;;3.00;1.05;;;;;;;;;;4997338;28;93478;-66
2022/09/20 13:59:18;;;;;;;3.83;1.50;;;;;;;;;;4997271;28;92911;-65
2022/09/20 14:01:49;;;;;;;1.77;1.10;;;;;;;;;;4995911;28;94816;-66
2022/09/20 14:04:17;;;;;;;5.97;1.50;;;;;;;;;;5000210;28;93292;-66
2022/09/20 14:06:44;;;;;;;3.22;1.00;;;;;;;;;;4997777;28;93133;-66
2022/09/20 14:09:27;;;;;;;2.55;1.30;;;;;;;;;;4997391;28;93497;-65
2022/09/20 14:11:54;;;;;;;3.45;1.27;;;;;;;;;;4996727;28;92457;-66
2022/09/20 14:14:22;;;;;;;4.50;1.08;;;;;;;;;;4998151;28;93543;-66
2022/09/20 14:16:49;;;;;;;5.53;1.13;;;;;;;;;;4996959;28;94051;-66
2022/09/20 14:19:17;;;;;;;1.88;1.00;;;;;;;;;;5016907;28;91707;-66
2022/09/20 14:21:43;;;;;;;1.60;1.08;;;;;;;;;;5017356;28;92311;-65
2022/09/20 14:24:12;;;;;;;0.82;0.80;;;;;;;;;;5017209;28;92283;-66
2022/09/20 14:26:39;;;;;;;2.55;0.80;;;;;;;;;;5017998;28;94959;-66
2022/09/20 14:29:24;;;;;;;3.13;1.48;;;;;;;;;;5017229;28;93048;-66
2022/09/20 14:31:51;;;;;;;1.58;0.90;;;;;;;;;;5013387;28;95061;-65
2022/09/20 14:34:18;;;;;;;2.13;0.85;;;;;;;;;;5007292;28;92982;-65
2022/09/20 14:36:46;;;;;;;1.50;1.00;;;;;;;;;;4996638;28;94170;-65
2022/09/20 14:39:14;;;;;;;3.75;1.95;;;;;;;;;;5009181;28;92776;-65
2022/09/20 14:41:40;;;;;;;2.67;1.02;;;;;;;;;;5017054;28;92908;-66
2022/09/20 14:44:22;;;;;;;1.08;0.82;;;;;;;;;;5011958;28;92683;-66
2022/09/20 14:46:49;;;;;;;2.30;1.10;;;;;;;;;;4998902;28;92456;-70
2022/09/20 14:49:19;;;;;;;4.85;1.50;;;;;;;;;;5005170;28;93373;-65
2022/09/20 14:51:46;;;;;;;2.83;1.08;;;;;;;;;;5015408;28;94837;-69
2022/09/20 14:54:12;;;;;;;4.32;1.15;;;;;;;;;;5016342;28;95119;-66
2022/09/20 14:56:40;;;;;;;2.75;1.40;;;;;;;;;;5016208;28;92797;-64
2022/09/20 14:59:09;;;;;;;3.53;0.90;;;;;;;;;;5016472;28;92403;-66
2022/09/20 15:01:43;;;;;;;4.97;1.23;;;;;;;;;;5015950;28;93119;-66
2022/09/20 15:04:20;;;;;;;6.47;1.02;;;;;;;;;;5015537;28;92472;-67
2022/09/20 15:06:47;;;;;;;2.13;0.93;;;;;;;;;;5016514;28;92816;-66
2022/09/20 15:09:14;;;;;;;1.38;0.80;;;;;;;;;;5014140;28;92998;-66
2022/09/20 15:11:41;;;;;;;3.13;1.15;;;;;;;;;;4996515;28;94651;-66
2022/09/20 15:14:07;;;;;;;6.55;1.25;;;;;;;;;;4996857;28;92302;-66
2022/09/20 15:16:33;;;;;;;3.30;1.13;;;;;;;;;;4993976;28;95653;-66
2022/09/20 15:19:00;;;;;;;1.77;0.90;;;;;;;;;;5006514;28;92624;-66
2022/09/20 15:21:26;;;;;;;1.20;0.82;;;;;;;;;;5016089;28;93120;-66
2022/09/20 15:23:52;;;;;;;2.10;1.17;;;;;;;;;;5015925;28;93354;-66
2022/09/20 15:26:19;;;;;;;2.67;0.90;;;;;;;;;;5016440;28;92410;-66